Home > Products > Valid Products > TAF

000
FTUS44 KSHV 281403 AAB
TAFLFK
TAF AMD
KLFK 281403Z 2814/2912 20005KT P6SM SCT012
      TEMPO 2814/2816 BKN012
     FM281600 20005KT P6SM SCT030
     FM281800 18005KT P6SM SCT045
     FM290200 16004KT P6SM SKC=



000
FTUS44 KSHV 281300 AAB
TAFELD
TAF AMD
KELD 281300Z 2813/2912 VRB03KT P6SM SKC
     FM281500 23005KT P6SM SKC
     FM281800 20006KT P6SM SCT250
     FM290000 17005KT P6SM SKC
     FM290400 22003KT P6SM SKC=



000
FTUS44 KSHV 281300 AAA
TAFLFK
TAF AMD
KLFK 281300Z 2813/2912 VRB03KT P6SM SCT012
     FM281400 22005KT P6SM FEW015
     FM281600 22005KT P6SM SKC
     FM290000 15006KT P6SM SKC
     FM290400 20003KT P6SM SKC=



000
FTUS44 KSHV 281300 AAA
TAFLFK
TAF AMD
KLFK 281300Z 2813/2912 VRB03KT P6SM SCT012
     FM281400 22005KT P6SM FEW015
     FM281600 22005KT P6SM SKC
     FM290000 15006KT P6SM SKC
     FM290400 20003KT P6SM SKC=



000
FTUS44 KSHV 281300 AAB
TAFELD
TAF AMD
KELD 281300Z 2813/2912 VRB03KT P6SM SKC
     FM281500 23005KT P6SM SKC
     FM281800 20006KT P6SM SCT250
     FM290000 17005KT P6SM SKC
     FM290400 22003KT P6SM SKC=



000
FTUS44 KSHV 281259 AAA
TAFMLU
TAF AMD
KMLU 281259Z 2813/2912 VRB03KT P6SM SKC
     FM281500 25004KT P6SM SKC
     FM281900 22005KT P6SM SCT060
     FM290100 VRB03KT P6SM SKC
     FM290400 20004KT P6SM SKC=



000
FTUS44 KSHV 281259 AAA
TAFMLU
TAF AMD
KMLU 281259Z 2813/2912 VRB03KT P6SM SKC
     FM281500 25004KT P6SM SKC
     FM281900 22005KT P6SM SCT060
     FM290100 VRB03KT P6SM SKC
     FM290400 20004KT P6SM SKC=



000
FTUS44 KSHV 281158 AAA
TAFELD
TAF AMD
KELD 281158Z 2812/2912 VRB03KT P6SM SKC
      TEMPO 2812/2814 4SM BR
     FM281500 23005KT P6SM SKC
     FM281800 20006KT P6SM SCT250
     FM290000 17005KT P6SM SKC
     FM290400 22003KT P6SM SKC=



000
FTUS44 KSHV 281158 AAA
TAFELD
TAF AMD
KELD 281158Z 2812/2912 VRB03KT P6SM SKC
      TEMPO 2812/2814 4SM BR
     FM281500 23005KT P6SM SKC
     FM281800 20006KT P6SM SCT250
     FM290000 17005KT P6SM SKC
     FM290400 22003KT P6SM SKC=



000
FTUS44 KSHV 281130
TAFSHV
TAF
KSHV 281130Z 2812/2912 19004KT P6SM SKC
     FM281600 21007KT P6SM SCT250
     FM282100 18006KT P6SM SCT060
     FM290100 14004KT P6SM SCT250
     FM290400 19005KT P6SM SKC=



000
FTUS44 KSHV 281130
TAFMLU
TAF
KMLU 281130Z 2812/2912 VRB03KT P6SM SKC
      TEMPO 2812/2814 5SM BR
     FM281500 25004KT P6SM SKC
     FM281900 22005KT P6SM SCT060
     FM290100 VRB03KT P6SM SKC
     FM290400 20004KT P6SM SKC=



000
FTUS44 KSHV 281130
TAFELD
TAF
KELD 281130Z 2812/2912 VRB03KT P6SM SKC
      TEMPO 2812/2814 5SM BR
     FM281500 23005KT P6SM SKC
     FM281800 20006KT P6SM SCT250
     FM290000 17005KT P6SM SKC
     FM290400 22003KT P6SM SKC=



000
FTUS44 KSHV 281130
TAFLFK
TAF
KLFK 281130Z 2812/2912 VRB03KT P6SM SCT012
      TEMPO 2812/2814 BKN012
     FM281400 22005KT P6SM FEW015
     FM281600 22005KT P6SM SKC
     FM290000 15006KT P6SM SKC
     FM290400 20003KT P6SM SKC=



000
FTUS44 KSHV 281130
TAFTYR
TAF
KTYR 281130Z 2812/2912 15006KT P6SM SKC
     FM281500 21008KT P6SM SCT060
     FM282000 18008KT P6SM SCT060 SCT250
     FM290000 17006KT P6SM SKC
     FM290400 21007KT P6SM SKC=



000
FTUS44 KSHV 281130
TAFGGG
TAF
KGGG 281130Z 2812/2912 15006KT P6SM SKC
     FM281500 21008KT P6SM SCT060
     FM282000 18008KT P6SM SCT060 SCT250
     FM290000 17006KT P6SM SKC
     FM290400 22004KT P6SM SKC=



000
FTUS44 KSHV 281130
TAFTXK
TAF
KTXK 281130Z 2812/2912 14004KT P6SM SKC
     FM281500 23007KT P6SM SKC
     FM281800 21007KT P6SM SCT060 SCT250
     FM282100 19007KT P6SM BKN250
     FM290000 17005KT P6SM SCT250
     FM290400 20004KT P6SM SKC=



000
FTUS44 KSHV 280521
TAFSHV
TAF
KSHV 280521Z 2806/2906 VRB03KT P6SM SKC
     FM280800 19004KT P6SM SKC
     FM281600 21007KT P6SM SCT250
     FM282100 18006KT P6SM SCT060
     FM290100 14004KT P6SM SCT250=



000
FTUS44 KSHV 280521
TAFTXK
TAF
KTXK 280521Z 2806/2906 14004KT P6SM SKC
     FM281500 23007KT P6SM SKC
     FM281800 21007KT P6SM SCT060 SCT250
     FM282100 19007KT P6SM BKN250
     FM290000 17005KT P6SM SCT250=



000
FTUS44 KSHV 280521
TAFGGG
TAF
KGGG 280521Z 2806/2906 15006KT P6SM SKC
     FM281500 21008KT P6SM SCT060
     FM282000 18008KT P6SM SCT060 SCT250
     FM290000 17006KT P6SM SKC=



000
FTUS44 KSHV 280521
TAFLFK
TAF
KLFK 280521Z 2806/2906 16004KT P6SM SKC
     FM281200 VRB03KT P6SM SCT012
      TEMPO 2812/2814 BKN012
     FM281400 22005KT P6SM FEW015
     FM281600 22005KT P6SM SKC
     FM290000 15006KT P6SM SKC=



000
FTUS44 KSHV 280521
TAFTYR
TAF
KTYR 280521Z 2806/2906 15006KT P6SM SKC
     FM281500 21008KT P6SM SCT060
     FM282000 18008KT P6SM SCT060 SCT250
     FM290000 17006KT P6SM SKC=



000
FTUS44 KSHV 280521
TAFMLU
TAF
KMLU 280521Z 2806/2906 VRB03KT P6SM SKC
     FM281500 25004KT P6SM SKC
     FM281900 22005KT P6SM SCT060
     FM290100 VRB03KT P6SM SKC=



000
FTUS44 KSHV 280521
TAFELD
TAF
KELD 280521Z 2806/2906 VRB03KT P6SM SKC
     FM281500 23005KT P6SM SKC
     FM281800 20006KT P6SM SCT250
     FM290000 17005KT P6SM SKC=



000
FTUS44 KSHV 272341
TAFLFK
TAF
KLFK 272341Z 2800/2824 17006KT P6SM SCT050
     FM280200 16003KT P6SM FEW070 SCT250
     FM280600 VRB03KT P6SM SKC
     FM281200 VRB03KT P6SM SCT012
      TEMPO 2812/2814 BKN012
     FM281500 22005KT P6SM FEW017=



000
FTUS44 KSHV 272341
TAFGGG
TAF
KGGG 272341Z 2800/2824 19008KT P6SM BKN060 BKN090
     FM280200 17006KT P6SM FEW070 SCT250
     FM280600 18006KT P6SM SKC
     FM281500 21008KT P6SM SCT060
     FM282000 18008KT P6SM SCT060 BKN250=



000
FTUS44 KSHV 272341
TAFTXK
TAF
KTXK 272341Z 2800/2824 16006KT P6SM SCT060
     FM280100 16004KT P6SM FEW070
     FM280600 20004KT P6SM SKC
     FM281500 23007KT P6SM SKC
     FM281800 21007KT P6SM SCT060 SCT250=



000
FTUS44 KSHV 272341
TAFMLU
TAF
KMLU 272341Z 2800/2824 VRB04KT P6SM SCT060 BKN080
     FM280100 VRB03KT P6SM SKC
     FM281500 25004KT P6SM SKC
     FM281900 22005KT P6SM SCT060=



000
FTUS44 KSHV 272341
TAFSHV
TAF
KSHV 272341Z 2800/2824 18006KT P6SM SCT060 SCT250
     FM280400 16005KT P6SM FEW250
     FM280800 19004KT P6SM SKC
     FM281600 21007KT P6SM SCT250
     FM282100 16006KT P6SM SCT060=



000
FTUS44 KSHV 272341
TAFELD
TAF
KELD 272341Z 2800/2824 15005KT P6SM SCT060
     FM280100 VRB03KT P6SM SKC
     FM281500 23005KT P6SM SKC
     FM281800 20006KT P6SM SCT250=



000
FTUS44 KSHV 272341
TAFTYR
TAF
KTYR 272341Z 2800/2824 19008KT P6SM SCT060 BKN090
     FM280200 17006KT P6SM FEW070 SCT250
     FM280600 18006KT P6SM SKC
     FM281500 21008KT P6SM SCT060
     FM282000 18008KT P6SM SCT060 BKN250=



000
FTUS44 KSHV 272341
TAFELD
TAF
KELD 272341Z 2800/2824 15005KT P6SM SCT060
     FM280100 VRB03KT P6SM SKC
     FM281500 23005KT P6SM SKC
     FM281800 20006KT P6SM SCT250=



000
FTUS44 KSHV 272341
TAFLFK
TAF
KLFK 272341Z 2800/2824 17006KT P6SM SCT050
     FM280200 16003KT P6SM FEW070 SCT250
     FM280600 VRB03KT P6SM SKC
     FM281200 VRB03KT P6SM SCT012
      TEMPO 2812/2814 BKN012
     FM281500 22005KT P6SM FEW017=



000
FTUS44 KSHV 272341
TAFTXK
TAF
KTXK 272341Z 2800/2824 16006KT P6SM SCT060
     FM280100 16004KT P6SM FEW070
     FM280600 20004KT P6SM SKC
     FM281500 23007KT P6SM SKC
     FM281800 21007KT P6SM SCT060 SCT250=



000
FTUS44 KSHV 272341
TAFSHV
TAF
KSHV 272341Z 2800/2824 18006KT P6SM SCT060 SCT250
     FM280400 16005KT P6SM FEW250
     FM280800 19004KT P6SM SKC
     FM281600 21007KT P6SM SCT250
     FM282100 16006KT P6SM SCT060=



000
FTUS44 KSHV 272341
TAFMLU
TAF
KMLU 272341Z 2800/2824 VRB04KT P6SM SCT060 BKN080
     FM280100 VRB03KT P6SM SKC
     FM281500 25004KT P6SM SKC
     FM281900 22005KT P6SM SCT060=



000
FTUS44 KSHV 272341
TAFGGG
TAF
KGGG 272341Z 2800/2824 19008KT P6SM BKN060 BKN090
     FM280200 17006KT P6SM FEW070 SCT250
     FM280600 18006KT P6SM SKC
     FM281500 21008KT P6SM SCT060
     FM282000 18008KT P6SM SCT060 BKN250=



000
FTUS44 KSHV 272341
TAFTYR
TAF
KTYR 272341Z 2800/2824 19008KT P6SM SCT060 BKN090
     FM280200 17006KT P6SM FEW070 SCT250
     FM280600 18006KT P6SM SKC
     FM281500 21008KT P6SM SCT060
     FM282000 18008KT P6SM SCT060 BKN250=



000
FTUS44 KSHV 272156 AAA
TAFMLU
TAF AMD
KMLU 272156Z 2722/2818 VRB04KT P6SM VCSH SCT060
      TEMPO 2722/2723 3SM SHRA BR BKN040
     FM280100 VRB03KT P6SM SKC
     FM281500 25004KT P6SM SKC=



000
FTUS44 KSHV 271722
TAFMLU
TAF
KMLU 271722Z 2718/2818 15004KT P6SM SCT060
     FM280100 VRB03KT P6SM SKC
     FM281500 25004KT P6SM SKC=



000
FTUS44 KSHV 271722
TAFTXK
TAF
KTXK 271722Z 2718/2818 16006KT P6SM SCT060
     FM280100 16004KT P6SM FEW070
     FM280600 20004KT P6SM SKC
     FM281500 23006KT P6SM SKC=



000
FTUS44 KSHV 271722
TAFGGG
TAF
KGGG 271722Z 2718/2818 21007KT P6SM SCT060
     FM280200 17005KT P6SM FEW070 SCT250
     FM280600 19004KT P6SM SKC
     FM281500 22007KT P6SM SKC=



000
FTUS44 KSHV 271722
TAFSHV
TAF
KSHV 271722Z 2718/2818 18006KT P6SM SCT060
     FM280200 18004KT P6SM FEW070 SCT250
     FM280600 20004KT P6SM SKC
     FM281500 23005KT P6SM SKC=



000
FTUS44 KSHV 271722
TAFELD
TAF
KELD 271722Z 2718/2818 15005KT P6SM SCT060
     FM280100 VRB03KT P6SM SKC
     FM281500 23005KT P6SM SKC=



000
FTUS44 KSHV 271722
TAFSHV
TAF
KSHV 271722Z 2718/2818 18006KT P6SM SCT060
     FM280200 18004KT P6SM FEW070 SCT250
     FM280600 20004KT P6SM SKC
     FM281500 23005KT P6SM SKC=



000
FTUS44 KSHV 271722
TAFMLU
TAF
KMLU 271722Z 2718/2818 15004KT P6SM SCT060
     FM280100 VRB03KT P6SM SKC
     FM281500 25004KT P6SM SKC=



000
FTUS44 KSHV 271722
TAFTXK
TAF
KTXK 271722Z 2718/2818 16006KT P6SM SCT060
     FM280100 16004KT P6SM FEW070
     FM280600 20004KT P6SM SKC
     FM281500 23006KT P6SM SKC=



000
FTUS44 KSHV 271722
TAFLFK
TAF
KLFK 271722Z 2718/2818 17006KT P6SM SCT050
     FM280200 16003KT P6SM FEW070 SCT250
     FM280600 VRB03KT P6SM SKC
     FM281200 VRB03KT P6SM SCT012
     FM281500 22005KT P6SM FEW017=



000
FTUS44 KSHV 271722
TAFELD
TAF
KELD 271722Z 2718/2818 15005KT P6SM SCT060
     FM280100 VRB03KT P6SM SKC
     FM281500 23005KT P6SM SKC=



000
FTUS44 KSHV 271722
TAFTYR
TAF
KTYR 271722Z 2718/2818 21008KT P6SM SCT060
     FM280200 17006KT P6SM FEW070 SCT250
     FM280600 18006KT P6SM SKC
     FM281500 21008KT P6SM SKC=



000
FTUS44 KSHV 271722
TAFGGG
TAF
KGGG 271722Z 2718/2818 21007KT P6SM SCT060
     FM280200 17005KT P6SM FEW070 SCT250
     FM280600 19004KT P6SM SKC
     FM281500 22007KT P6SM SKC=



000
FTUS44 KSHV 271722
TAFLFK
TAF
KLFK 271722Z 2718/2818 17006KT P6SM SCT050
     FM280200 16003KT P6SM FEW070 SCT250
     FM280600 VRB03KT P6SM SKC
     FM281200 VRB03KT P6SM SCT012
     FM281500 22005KT P6SM FEW017=



000
FTUS44 KSHV 271722
TAFTYR
TAF
KTYR 271722Z 2718/2818 21008KT P6SM SCT060
     FM280200 17006KT P6SM FEW070 SCT250
     FM280600 18006KT P6SM SKC
     FM281500 21008KT P6SM SKC=



000
FTUS44 KSHV 271257 AAB
TAFTXK
TAF AMD
KTXK 271257Z 2713/2812 VRB03KT P6SM SKC
     FM271700 17006KT P6SM SCT060
     FM280100 16004KT P6SM SKC=



000
FTUS44 KSHV 271255 AAB
TAFLFK
TAF AMD
KLFK 271255Z 2713/2812 00000KT P6SM BKN070
     FM271800 14007KT P6SM VCSH SCT060
     FM280200 16002KT P6SM BKN250=



000
FTUS44 KSHV 271255 AAB
TAFLFK
TAF AMD
KLFK 271255Z 2713/2812 00000KT P6SM BKN070
     FM271800 14007KT P6SM VCSH SCT060
     FM280200 16002KT P6SM BKN250=



000
FTUS44 KSHV 271213 AAA
TAFLFK
TAF AMD
KLFK 271213Z 2712/2812 00000KT P6SM BKN070
      TEMPO 2712/2714 BKN015
     FM271800 14007KT P6SM VCSH SCT060
     FM280200 16002KT P6SM BKN250=



000
FTUS44 KSHV 271213 AAA
TAFLFK
TAF AMD
KLFK 271213Z 2712/2812 00000KT P6SM BKN070
      TEMPO 2712/2714 BKN015
     FM271800 14007KT P6SM VCSH SCT060
     FM280200 16002KT P6SM BKN250=



000
FTUS44 KSHV 271212 AAA
TAFTXK
TAF AMD
KTXK 271212Z 2712/2812 VRB03KT P6SM SKC
      TEMPO 2712/2713 5SM BR
     FM271700 17006KT P6SM SCT060
     FM280100 16004KT P6SM SKC=



000
FTUS44 KSHV 271212 AAA
TAFTXK
TAF AMD
KTXK 271212Z 2712/2812 VRB03KT P6SM SKC
      TEMPO 2712/2713 5SM BR
     FM271700 17006KT P6SM SCT060
     FM280100 16004KT P6SM SKC=



000
FTUS44 KSHV 271127
TAFTXK
TAF
KTXK 271127Z 2712/2812 VRB03KT P6SM SKC
     FM271700 17006KT P6SM SCT060
     FM280100 16004KT P6SM SKC=



000
FTUS44 KSHV 271127
TAFTYR
TAF
KTYR 271127Z 2712/2812 18003KT P6SM SKC
     FM271800 16008KT P6SM SCT060
     FM280200 16006KT P6SM SCT250=



000
FTUS44 KSHV 271127
TAFMLU
TAF
KMLU 271127Z 2712/2812 00000KT P6SM SKC
     FM271700 16004KT P6SM SCT060
     FM280100 15003KT P6SM FEW250=



000
FTUS44 KSHV 271127
TAFLFK
TAF
KLFK 271127Z 2712/2812 00000KT P6SM BKN070
     FM271800 14007KT P6SM VCSH SCT060
     FM280200 16002KT P6SM BKN250=



000
FTUS44 KSHV 271127
TAFELD
TAF
KELD 271127Z 2712/2812 00000KT P6SM SKC
     FM271700 16004KT P6SM SCT060
     FM280100 15003KT P6SM FEW250=



000
FTUS44 KSHV 271127
TAFSHV
TAF
KSHV 271127Z 2712/2812 VRB04KT P6SM FEW250
     FM271900 16008KT P6SM SCT060
     FM280100 17004KT P6SM BKN250=



000
FTUS44 KSHV 271127
TAFGGG
TAF
KGGG 271127Z 2712/2812 17003KT P6SM SKC
     FM271800 16008KT P6SM SCT060
     FM280200 16006KT P6SM SCT250=



000
FTUS44 KSHV 271127
TAFTYR
TAF
KTYR 271127Z 2712/2812 18003KT P6SM SKC
     FM271800 16008KT P6SM SCT060
     FM280200 16006KT P6SM SCT250=



000
FTUS44 KSHV 271127
TAFGGG
TAF
KGGG 271127Z 2712/2812 17003KT P6SM SKC
     FM271800 16008KT P6SM SCT060
     FM280200 16006KT P6SM SCT250=



000
FTUS44 KSHV 271127
TAFELD
TAF
KELD 271127Z 2712/2812 00000KT P6SM SKC
     FM271700 16004KT P6SM SCT060
     FM280100 15003KT P6SM FEW250=



000
FTUS44 KSHV 271127
TAFSHV
TAF
KSHV 271127Z 2712/2812 VRB04KT P6SM FEW250
     FM271900 16008KT P6SM SCT060
     FM280100 17004KT P6SM BKN250=



000
FTUS44 KSHV 271127
TAFMLU
TAF
KMLU 271127Z 2712/2812 00000KT P6SM SKC
     FM271700 16004KT P6SM SCT060
     FM280100 15003KT P6SM FEW250=



000
FTUS44 KSHV 271127
TAFTXK
TAF
KTXK 271127Z 2712/2812 VRB03KT P6SM SKC
     FM271700 17006KT P6SM SCT060
     FM280100 16004KT P6SM SKC=



000
FTUS44 KSHV 271127
TAFLFK
TAF
KLFK 271127Z 2712/2812 00000KT P6SM BKN070
     FM271800 14007KT P6SM VCSH SCT060
     FM280200 16002KT P6SM BKN250=



000
FTUS44 KSHV 270520
TAFLFK
TAF
KLFK 270520Z 2706/2806 14008KT P6SM FEW100
     FM271100 00000KT 4SM BR SCT060
     FM271800 14007KT P6SM VCSH SCT070 BKN090=



000
FTUS44 KSHV 270520
TAFSHV
TAF
KSHV 270520Z 2706/2806 VRB04KT P6SM SCT070 SCT250
     FM271900 16008KT P6SM SCT060 BKN250
     FM280100 16006KT P6SM BKN250=



000
FTUS44 KSHV 270520
TAFGGG
TAF
KGGG 270520Z 2706/2806 15006KT P6SM SCT060 BKN140
     FM271800 17008KT P6SM BKN060
     FM280200 15006KT P6SM SCT060=



000
FTUS44 KSHV 270520
TAFTYR
TAF
KTYR 270520Z 2706/2806 15006KT P6SM SCT060 BKN140
     FM271800 17008KT P6SM BKN060
     FM280200 15006KT P6SM SCT060=



000
FTUS44 KSHV 270520
TAFELD
TAF
KELD 270520Z 2706/2806 11003KT P6SM SKC
     FM271400 21004KT P6SM BKN180
     FM272100 14007KT P6SM FEW250=



000
FTUS44 KSHV 270520
TAFTXK
TAF
KTXK 270520Z 2706/2806 VRB03KT P6SM SKC
     FM271800 17004KT P6SM SCT060
     FM280100 16004KT P6SM SKC=



000
FTUS44 KSHV 270520
TAFSHV
TAF
KSHV 270520Z 2706/2806 VRB04KT P6SM SCT070 SCT250
     FM271900 16008KT P6SM SCT060 BKN250
     FM280100 16006KT P6SM BKN250=



000
FTUS44 KSHV 270520
TAFMLU
TAF
KMLU 270520Z 2706/2806 19004KT P6SM SCT250
      TEMPO 2711/2713 5SM BR SKC
     FM271400 16004KT P6SM SCT060
     FM280100 15003KT P6SM FEW250=



000
FTUS44 KSHV 270520
TAFLFK
TAF
KLFK 270520Z 2706/2806 14008KT P6SM FEW100
     FM271100 00000KT 4SM BR SCT060
     FM271800 14007KT P6SM VCSH SCT070 BKN090=



000
FTUS44 KSHV 270520
TAFGGG
TAF
KGGG 270520Z 2706/2806 15006KT P6SM SCT060 BKN140
     FM271800 17008KT P6SM BKN060
     FM280200 15006KT P6SM SCT060=



000
FTUS44 KSHV 270520
TAFELD
TAF
KELD 270520Z 2706/2806 11003KT P6SM SKC
     FM271400 21004KT P6SM BKN180
     FM272100 14007KT P6SM FEW250=



000
FTUS44 KSHV 270520
TAFTYR
TAF
KTYR 270520Z 2706/2806 15006KT P6SM SCT060 BKN140
     FM271800 17008KT P6SM BKN060
     FM280200 15006KT P6SM SCT060=



000
FTUS44 KSHV 270520
TAFTXK
TAF
KTXK 270520Z 2706/2806 VRB03KT P6SM SKC
     FM271800 17004KT P6SM SCT060
     FM280100 16004KT P6SM SKC=



000
FTUS44 KSHV 270520
TAFMLU
TAF
KMLU 270520Z 2706/2806 19004KT P6SM SCT250
      TEMPO 2711/2713 5SM BR SKC
     FM271400 16004KT P6SM SCT060
     FM280100 15003KT P6SM FEW250=



000
FTUS44 KSHV 262358
TAFGGG
TAF
KGGG 262358Z 2700/2724 27007KT P6SM VCSH SCT060 SCT250
      TEMPO 2700/2702 -TSRA BKN060CB BKN250
     FM270300 16004KT P6SM SCT060 BKN250
     FM270600 14004KT P6SM SKC
     FM271500 22007KT P6SM SCT060=



000
FTUS44 KSHV 262358
TAFELD
TAF
KELD 262358Z 2700/2724 05007KT P6SM FEW060 SCT250
     FM270200 VRB03KT P6SM SCT250
     FM271100 00000KT 4SM BR SCT180
     FM271400 21004KT P6SM BKN180
     FM272100 14007KT P6SM FEW250=



000
FTUS44 KSHV 262358
TAFTYR
TAF
KTYR 262358Z 2700/2724 27007KT P6SM VCSH SCT060 SCT250
      TEMPO 2700/2702 -TSRA BKN060CB BKN250
     FM270300 16004KT P6SM SCT060 BKN250
     FM270600 14004KT P6SM SKC
     FM271500 22007KT P6SM SCT060=



000
FTUS44 KSHV 262358
TAFSHV
TAF
KSHV 262358Z 2700/2724 04007KT P6SM VCTS SCT060CB BKN160
      TEMPO 2700/2702 09007KT -TSRA BKN050CB BKN250
     FM270200 VRB04KT P6SM SCT060 BKN250
     FM271500 25004KT P6SM SCT060 SCT250
     FM272000 15007KT P6SM SCT060 BKN250=



000
FTUS44 KSHV 262358
TAFTXK
TAF
KTXK 262358Z 2700/2724 07007KT P6SM SCT060 SCT250
     FM270200 VRB03KT P6SM SCT250
     FM270800 VRB03KT P6SM SCT060 BKN250
     FM271800 17004KT P6SM SCT060=



000
FTUS44 KSHV 262358
TAFLFK
TAF
KLFK 262358Z 2700/2724 VRB05KT P6SM VCTS SCT070CB BKN250
      TEMPO 2700/2702 -TSRA BKN060CB BKN250
     FM270300 16004KT P6SM SCT060 BKN250
     FM271100 00000KT 4SM BR SCT060
     FM271800 14007KT P6SM VCSH SCT070 BKN090=



000
FTUS44 KSHV 262358
TAFELD
TAF
KELD 262358Z 2700/2724 05007KT P6SM FEW060 SCT250
     FM270200 VRB03KT P6SM SCT250
     FM271100 00000KT 4SM BR SCT180
     FM271400 21004KT P6SM BKN180
     FM272100 14007KT P6SM FEW250=



000
FTUS44 KSHV 262358
TAFTXK
TAF
KTXK 262358Z 2700/2724 07007KT P6SM SCT060 SCT250
     FM270200 VRB03KT P6SM SCT250
     FM270800 VRB03KT P6SM SCT060 BKN250
     FM271800 17004KT P6SM SCT060=



000
FTUS44 KSHV 262358
TAFSHV
TAF
KSHV 262358Z 2700/2724 04007KT P6SM VCTS SCT060CB BKN160
      TEMPO 2700/2702 09007KT -TSRA BKN050CB BKN250
     FM270200 VRB04KT P6SM SCT060 BKN250
     FM271500 25004KT P6SM SCT060 SCT250
     FM272000 15007KT P6SM SCT060 BKN250=



000
FTUS44 KSHV 262358
TAFLFK
TAF
KLFK 262358Z 2700/2724 VRB05KT P6SM VCTS SCT070CB BKN250
      TEMPO 2700/2702 -TSRA BKN060CB BKN250
     FM270300 16004KT P6SM SCT060 BKN250
     FM271100 00000KT 4SM BR SCT060
     FM271800 14007KT P6SM VCSH SCT070 BKN090=



000
FTUS44 KSHV 262358
TAFGGG
TAF
KGGG 262358Z 2700/2724 27007KT P6SM VCSH SCT060 SCT250
      TEMPO 2700/2702 -TSRA BKN060CB BKN250
     FM270300 16004KT P6SM SCT060 BKN250
     FM270600 14004KT P6SM SKC
     FM271500 22007KT P6SM SCT060=



000
FTUS44 KSHV 262358
TAFTYR
TAF
KTYR 262358Z 2700/2724 27007KT P6SM VCSH SCT060 SCT250
      TEMPO 2700/2702 -TSRA BKN060CB BKN250
     FM270300 16004KT P6SM SCT060 BKN250
     FM270600 14004KT P6SM SKC
     FM271500 22007KT P6SM SCT060=



000
FTUS44 KSHV 262358
TAFMLU
TAF
KMLU 262358Z 2700/2724 05008KT P6SM SCT060 SCT250
     FM270200 VRB03KT P6SM SCT250
     FM270800 VRB03KT P6SM SCT060 BKN250
     FM271800 17004KT P6SM SCT060=



000
FTUS44 KSHV 262358
TAFMLU
TAF
KMLU 262358Z 2700/2724 05008KT P6SM SCT060 SCT250
     FM270200 VRB03KT P6SM SCT250
     FM270800 VRB03KT P6SM SCT060 BKN250
     FM271800 17004KT P6SM SCT060=



000
FTUS44 KSHV 261721
TAFELD
TAF
KELD 261721Z 2618/2718 VRB03KT P6SM SCT250=



000
FTUS44 KSHV 261721
TAFTXK
TAF
KTXK 261721Z 2618/2718 VRB03KT P6SM SCT250=



000
FTUS44 KSHV 261721
TAFSHV
TAF
KSHV 261721Z 2618/2718 VRB03KT P6SM BKN250=



000
FTUS44 KSHV 261721
TAFGGG
TAF
KGGG 261721Z 2618/2718 VRB03KT P6SM SCT250
     FM270100 16004KT P6SM SCT250=



000
FTUS44 KSHV 261721
TAFLFK
TAF
KLFK 261721Z 2618/2718 VRB03KT P6SM FEW060 SCT250
     FM270200 16004KT P6SM BKN250=



000
FTUS44 KSHV 261721
TAFMLU
TAF
KMLU 261721Z 2618/2718 VRB03KT P6SM SCT250
     FM262200 03005KT P6SM VCTS SCT060CB SCT250
     FM270300 VRB03KT P6SM SCT250=



000
FTUS44 KSHV 261721
TAFTYR
TAF
KTYR 261721Z 2618/2718 19007KT P6SM SCT250
     FM270100 16004KT P6SM SCT250=



000
FTUS44 KSHV 261721
TAFLFK
TAF
KLFK 261721Z 2618/2718 VRB03KT P6SM FEW060 SCT250
     FM270200 16004KT P6SM BKN250=



000
FTUS44 KSHV 261721
TAFSHV
TAF
KSHV 261721Z 2618/2718 VRB03KT P6SM BKN250=



000
FTUS44 KSHV 261721
TAFGGG
TAF
KGGG 261721Z 2618/2718 VRB03KT P6SM SCT250
     FM270100 16004KT P6SM SCT250=



000
FTUS44 KSHV 261721
TAFTYR
TAF
KTYR 261721Z 2618/2718 19007KT P6SM SCT250
     FM270100 16004KT P6SM SCT250=



000
FTUS44 KSHV 261721
TAFELD
TAF
KELD 261721Z 2618/2718 VRB03KT P6SM SCT250=



000
FTUS44 KSHV 261721
TAFMLU
TAF
KMLU 261721Z 2618/2718 VRB03KT P6SM SCT250
     FM262200 03005KT P6SM VCTS SCT060CB SCT250
     FM270300 VRB03KT P6SM SCT250=



000
FTUS44 KSHV 261721
TAFTXK
TAF
KTXK 261721Z 2618/2718 VRB03KT P6SM SCT250=



000
FTUS44 KSHV 261256 AAA
TAFMLU
TAF AMD
KMLU 261256Z 2613/2712 VRB04KT P6SM SCT250
     FM262200 03005KT P6SM VCTS SCT060CB SCT250
     FM270300 VRB04KT P6SM SCT250=



000
FTUS44 KSHV 261120
TAFGGG
TAF
KGGG 261120Z 2612/2712 24005KT P6SM BKN250
     FM261400 VRB05KT P6SM SCT250
     FM270100 16004KT P6SM SCT250=



000
FTUS44 KSHV 261120
TAFTYR
TAF
KTYR 261120Z 2612/2712 23007KT P6SM BKN250
     FM261400 19007KT P6SM SCT250
     FM270100 16004KT P6SM SCT250=



000
FTUS44 KSHV 261120
TAFTXK
TAF
KTXK 261120Z 2612/2712 VRB05KT P6SM SCT250=



000
FTUS44 KSHV 261120
TAFSHV
TAF
KSHV 261120Z 2612/2712 VRB05KT P6SM BKN250=



000
FTUS44 KSHV 261120
TAFELD
TAF
KELD 261120Z 2612/2712 00000KT P6SM SCT250
     FM261600 VRB05KT P6SM SCT250=



000
FTUS44 KSHV 261120
TAFLFK
TAF
KLFK 261120Z 2612/2712 VRB05KT P6SM BKN250
     FM261700 VRB05KT P6SM FEW060 SCT250
     FM270200 16002KT P6SM BKN250=



000
FTUS44 KSHV 261120
TAFMLU
TAF
KMLU 261120Z 2612/2712 VRB04KT P6SM SCT250
      TEMPO 2612/2613 1SM BR
     FM262200 03005KT P6SM VCTS SCT060CB SCT250
     FM270300 VRB04KT P6SM SCT250=



000
FTUS44 KSHV 261026 AAA
TAFMLU
TAF AMD
KMLU 261026Z 2610/2706 VRB04KT P6SM SCT250
      TEMPO 2610/2612 1SM BR
     FM261600 03005KT P6SM SCT060 SCT100 SCT250
     FM262200 03005KT P6SM VCTS SCT060CB SCT100 SCT250
     FM270300 VRB04KT P6SM SCT120 SCT250=



000
FTUS44 KSHV 261026 AAA
TAFMLU
TAF AMD
KMLU 261026Z 2610/2706 VRB04KT P6SM SCT250
      TEMPO 2610/2612 1SM BR
     FM261600 03005KT P6SM SCT060 SCT100 SCT250
     FM262200 03005KT P6SM VCTS SCT060CB SCT100 SCT250
     FM270300 VRB04KT P6SM SCT120 SCT250=



000
FTUS44 KSHV 260555
TAFTYR
TAF
KTYR 260555Z 2606/2706 15003KT P6SM SCT250
     FM261400 17007KT P6SM FEW120 SCT250
     FM270100 19005KT P6SM SCT250=



000
FTUS44 KSHV 260555
TAFLFK
TAF
KLFK 260555Z 2606/2706 09003KT P6SM BKN250
     FM261400 17005KT P6SM FEW140 SCT250
     FM270200 18005KT P6SM BKN250=



000
FTUS44 KSHV 260555
TAFSHV
TAF
KSHV 260555Z 2606/2706 VRB03KT P6SM SCT080 SCT250
     FM261500 29005KT P6SM FEW050 SCT100 SCT250
     FM262200 VRB05KT P6SM SCT050 SCT100 SCT250
     FM270300 VRB03KT P6SM SCT250=



000
FTUS44 KSHV 260555
TAFMLU
TAF
KMLU 260555Z 2606/2706 17005KT P6SM SCT140 BKN250
     FM260900 VRB04KT P6SM SCT250
     FM261600 03005KT P6SM SCT060 SCT100 SCT250
     FM262200 03005KT P6SM VCTS SCT060CB SCT100 SCT250
     FM270300 VRB04KT P6SM SCT120 SCT250=



000
FTUS44 KSHV 260555
TAFTXK
TAF
KTXK 260555Z 2606/2706 13003KT P6SM SCT250
     FM261400 VRB05KT P6SM FEW045 SCT250
     FM270200 VRB03KT P6SM SCT250=



000
FTUS44 KSHV 260555
TAFELD
TAF
KELD 260555Z 2606/2706 05003KT P6SM SCT250
     FM261400 VRB05KT P6SM SCT050 SCT140 SCT250
     FM262200 09005KT P6SM VCTS SCT050CB SCT140 SCT250
     FM270300 VRB03KT P6SM SCT250=



000
FTUS44 KSHV 260555
TAFGGG
TAF
KGGG 260555Z 2606/2706 18004KT P6SM SCT250
     FM261600 20006KT P6SM SCT050 SCT120 SCT250
     FM270200 18004KT P6SM SCT250=



000
FTUS44 KSHV 260555
TAFTXK
TAF
KTXK 260555Z 2606/2706 13003KT P6SM SCT250
     FM261400 VRB05KT P6SM FEW045 SCT250
     FM270200 VRB03KT P6SM SCT250=



000
FTUS44 KSHV 260555
TAFGGG
TAF
KGGG 260555Z 2606/2706 18004KT P6SM SCT250
     FM261600 20006KT P6SM SCT050 SCT120 SCT250
     FM270200 18004KT P6SM SCT250=



000
FTUS44 KSHV 260555
TAFTYR
TAF
KTYR 260555Z 2606/2706 15003KT P6SM SCT250
     FM261400 17007KT P6SM FEW120 SCT250
     FM270100 19005KT P6SM SCT250=



000
FTUS44 KSHV 260555
TAFELD
TAF
KELD 260555Z 2606/2706 05003KT P6SM SCT250
     FM261400 VRB05KT P6SM SCT050 SCT140 SCT250
     FM262200 09005KT P6SM VCTS SCT050CB SCT140 SCT250
     FM270300 VRB03KT P6SM SCT250=



000
FTUS44 KSHV 260555
TAFSHV
TAF
KSHV 260555Z 2606/2706 VRB03KT P6SM SCT080 SCT250
     FM261500 29005KT P6SM FEW050 SCT100 SCT250
     FM262200 VRB05KT P6SM SCT050 SCT100 SCT250
     FM270300 VRB03KT P6SM SCT250=



000
FTUS44 KSHV 260555
TAFMLU
TAF
KMLU 260555Z 2606/2706 17005KT P6SM SCT140 BKN250
     FM260900 VRB04KT P6SM SCT250
     FM261600 03005KT P6SM SCT060 SCT100 SCT250
     FM262200 03005KT P6SM VCTS SCT060CB SCT100 SCT250
     FM270300 VRB04KT P6SM SCT120 SCT250=



000
FTUS44 KSHV 260555
TAFLFK
TAF
KLFK 260555Z 2606/2706 09003KT P6SM BKN250
     FM261400 17005KT P6SM FEW140 SCT250
     FM270200 18005KT P6SM BKN250=



000
FTUS44 KSHV 252340
TAFTYR
TAF
KTYR 252340Z 2600/2624 VRB04KT P6SM SCT060 SCT140 SCT250
     FM260200 17004KT P6SM SCT250
     FM261400 17007KT P6SM FEW120 SCT250=



000
FTUS44 KSHV 252340
TAFLFK
TAF
KLFK 252340Z 2600/2624 VRB05KT P6SM SCT250
     FM261400 17005KT P6SM FEW140 SCT250=



000
FTUS44 KSHV 252340
TAFGGG
TAF
KGGG 252340Z 2600/2624 VRB05KT P6SM FEW060 SCT140 SCT250
     FM260200 17004KT P6SM SCT250
     FM261400 VRB06KT P6SM FEW120 SCT250=



000
FTUS44 KSHV 252340
TAFMLU
TAF
KMLU 252340Z 2600/2624 35007KT P6SM VCTS SCT060CB SCT140 SCT250
      TEMPO 2600/2602 VRB10G18KT 3SM TSRA BR BKN050CB
     FM260200 VRB03KT P6SM SCT060 SCT140 SCT250
     FM261600 03005KT P6SM SCT060 SCT100 SCT250
     FM262200 03005KT P6SM VCTS SCT060CB SCT100 SCT250=



000
FTUS44 KSHV 252340
TAFELD
TAF
KELD 252340Z 2600/2624 34006KT P6SM SCT050 SCT140 BKN250
     FM260200 VRB03KT P6SM SCT140 SCT250
     FM261400 VRB05KT P6SM SCT050 SCT140 SCT250
     FM262200 09005KT P6SM VCTS SCT050CB SCT140 SCT250=



000
FTUS44 KSHV 252340
TAFSHV
TAF
KSHV 252340Z 2600/2624 VRB04KT P6SM FEW060 SCT250
     FM260200 24003KT P6SM SCT140 SCT250
     FM261400 VRB05KT P6SM FEW050 SCT100 SCT250=



000
FTUS44 KSHV 252340
TAFTXK
TAF
KTXK 252340Z 2600/2624 17005KT P6SM SCT140 BKN250
     FM260300 VRB03KT P6SM SCT140 SCT250
     FM261400 VRB05KT P6SM FEW045 SCT250=



000
FTUS44 KSHV 252257 AAA
TAFMLU
TAF AMD
KMLU 252257Z 2523/2618 VRB05KT P6SM VCTS SCT060CB SCT140 SCT250
      TEMPO 2523/2602 VRB10G18KT 3SM TSRA BR BKN050CB
     FM260200 VRB03KT P6SM SCT060 SCT140 SCT250
     FM261400 VRB05KT P6SM SCT060 SCT100 SCT250=



000
FTUS44 KSHV 252237 AAA
TAFELD
TAF AMD
KELD 252237Z 2523/2618 VRB05KT P6SM VCTS SCT050CB SCT140 SCT250
      TEMPO 2523/2601 VRB10G18KT 3SM TSRA BR BKN050CB
     FM260100 VRB03KT P6SM SCT060 SCT140 SCT250
     FM261400 VRB05KT P6SM SCT050 SCT140 SCT250=



000
FTUS44 KSHV 252235 AAA
TAFTXK
TAF AMD
KTXK 252235Z 2523/2618 VRB05KT P6SM VCTS SCT050CB SCT140 SCT250
      TEMPO 2523/2601 VRB10G18KT 3SM TSRA BR BKN050CB
     FM260100 VRB03KT P6SM SCT140 SCT250
     FM261400 VRB05KT P6SM FEW045 SCT250=



000
FTUS44 KSHV 251726
TAFGGG
TAF
KGGG 251726Z 2518/2618 VRB05KT P6SM SCT050 SCT140 SCT250
     FM260100 19004KT P6SM SKC
     FM261400 VRB06KT P6SM FEW120 SCT250=



000
FTUS44 KSHV 251726
TAFLFK
TAF
KLFK 251726Z 2518/2618 VRB05KT P6SM SCT050 SCT250
     FM260100 VRB03KT P6SM SKC
     FM261400 VRB05KT P6SM FEW140 SCT250=



000
FTUS44 KSHV 251726
TAFTXK
TAF
KTXK 251726Z 2518/2618 VRB05KT P6SM SCT050 SCT140 SCT250
     FM260100 VRB03KT P6SM SCT140 SCT250
     FM261400 VRB05KT P6SM FEW045 SCT250=



000
FTUS44 KSHV 251726
TAFMLU
TAF
KMLU 251726Z 2518/2618 VRB05KT P6SM SCT060 SCT140 SCT250
     FM260100 VRB03KT P6SM SCT060 SCT140 SCT250
     FM261400 VRB05KT P6SM SCT060 SCT100 SCT250=



000
FTUS44 KSHV 251726
TAFELD
TAF
KELD 251726Z 2518/2618 VRB05KT P6SM SCT050 SCT140 SCT250
     FM260100 VRB03KT P6SM SCT060 SCT140 SCT250
     FM261400 VRB05KT P6SM SCT050 SCT140 SCT250=



000
FTUS44 KSHV 251726
TAFTYR
TAF
KTYR 251726Z 2518/2618 VRB05KT P6SM SCT050 SCT140 SCT250
     FM260100 19004KT P6SM SKC
     FM261400 VRB06KT P6SM FEW120 SCT250=



000
FTUS44 KSHV 251726
TAFSHV
TAF
KSHV 251726Z 2518/2618 VRB05KT P6SM SCT050 SCT140 SCT250
     FM260100 24003KT P6SM SCT140 SCT250
     FM261400 VRB05KT P6SM FEW045 SCT100 SCT250=



000
FTUS44 KSHV 251726
TAFTYR
TAF
KTYR 251726Z 2518/2618 VRB05KT P6SM SCT050 SCT140 SCT250
     FM260100 19004KT P6SM SKC
     FM261400 VRB06KT P6SM FEW120 SCT250=



000
FTUS44 KSHV 251726
TAFELD
TAF
KELD 251726Z 2518/2618 VRB05KT P6SM SCT050 SCT140 SCT250
     FM260100 VRB03KT P6SM SCT060 SCT140 SCT250
     FM261400 VRB05KT P6SM SCT050 SCT140 SCT250=



000
FTUS44 KSHV 251726
TAFSHV
TAF
KSHV 251726Z 2518/2618 VRB05KT P6SM SCT050 SCT140 SCT250
     FM260100 24003KT P6SM SCT140 SCT250
     FM261400 VRB05KT P6SM FEW045 SCT100 SCT250=



000
FTUS44 KSHV 251726
TAFTXK
TAF
KTXK 251726Z 2518/2618 VRB05KT P6SM SCT050 SCT140 SCT250
     FM260100 VRB03KT P6SM SCT140 SCT250
     FM261400 VRB05KT P6SM FEW045 SCT250=



000
FTUS44 KSHV 251726
TAFLFK
TAF
KLFK 251726Z 2518/2618 VRB05KT P6SM SCT050 SCT250
     FM260100 VRB03KT P6SM SKC
     FM261400 VRB05KT P6SM FEW140 SCT250=



000
FTUS44 KSHV 251726
TAFGGG
TAF
KGGG 251726Z 2518/2618 VRB05KT P6SM SCT050 SCT140 SCT250
     FM260100 19004KT P6SM SKC
     FM261400 VRB06KT P6SM FEW120 SCT250=



000
FTUS44 KSHV 251726
TAFMLU
TAF
KMLU 251726Z 2518/2618 VRB05KT P6SM SCT060 SCT140 SCT250
     FM260100 VRB03KT P6SM SCT060 SCT140 SCT250
     FM261400 VRB05KT P6SM SCT060 SCT100 SCT250=



    US Dept of Commerce
    National Oceanic and Atmospheric Administration
    National Weather Service
    1325 East West Highway
    Silver Spring, MD 20910
    Page Author: NWS Internet Services Team
Disclaimer
Information Quality
Credits
Glossary
Privacy Policy
Freedom of Information Act (FOIA)
About Us
Career Opportunities